sensor_id;sensor_type;location;lat;lon;timestamp;P1;durP1;ratioP1;P2;durP2;ratioP2
32026;SDS011;18543;50.848;4.596;2023-02-15T00:01:50;8.07;;;5.43;;
32026;SDS011;18543;50.848;4.596;2023-02-15T00:04:19;7.78;;;5.50;;
32026;SDS011;18543;50.848;4.596;2023-02-15T00:06:48;7.90;;;5.47;;
32026;SDS011;18543;50.848;4.596;2023-02-15T00:09:15;7.28;;;5.15;;
32026;SDS011;18543;50.848;4.596;2023-02-15T00:11:42;6.82;;;5.75;;
32026;SDS011;18543;50.848;4.596;2023-02-15T00:14:17;5.63;;;5.00;;
32026;SDS011;18543;50.848;4.596;2023-02-15T00:16:46;7.07;;;5.65;;
32026;SDS011;18543;50.848;4.596;2023-02-15T00:19:16;7.43;;;5.50;;
32026;SDS011;18543;50.848;4.596;2023-02-15T00:21:45;7.47;;;5.78;;
32026;SDS011;18543;50.848;4.596;2023-02-15T00:24:13;8.27;;;5.82;;
32026;SDS011;18543;50.848;4.596;2023-02-15T00:26:41;6.55;;;5.35;;
32026;SDS011;18543;50.848;4.596;2023-02-15T00:29:09;5.88;;;5.25;;
32026;SDS011;18543;50.848;4.596;2023-02-15T00:34:11;7.32;;;5.57;;
32026;SDS011;18543;50.848;4.596;2023-02-15T00:36:43;6.43;;;5.60;;
32026;SDS011;18543;50.848;4.596;2023-02-15T00:39:11;6.63;;;5.60;;
32026;SDS011;18543;50.848;4.596;2023-02-15T00:41:38;6.72;;;5.50;;
32026;SDS011;18543;50.848;4.596;2023-02-15T00:44:05;6.63;;;5.38;;
32026;SDS011;18543;50.848;4.596;2023-02-15T00:46:32;6.75;;;5.25;;
32026;SDS011;18543;50.848;4.596;2023-02-15T00:49:00;7.57;;;5.15;;
32026;SDS011;18543;50.848;4.596;2023-02-15T00:51:27;7.53;;;5.60;;
32026;SDS011;18543;50.848;4.596;2023-02-15T00:53:56;7.78;;;6.22;;
32026;SDS011;18543;50.848;4.596;2023-02-15T00:56:23;6.53;;;5.57;;
32026;SDS011;18543;50.848;4.596;2023-02-15T00:58:50;6.75;;;5.57;;
32026;SDS011;18543;50.848;4.596;2023-02-15T01:01:20;6.35;;;5.20;;
32026;SDS011;18543;50.848;4.596;2023-02-15T01:03:47;6.32;;;5.32;;
32026;SDS011;18543;50.848;4.596;2023-02-15T01:06:15;8.38;;;5.68;;
32026;SDS011;18543;50.848;4.596;2023-02-15T01:08:43;6.65;;;5.25;;
32026;SDS011;18543;50.848;4.596;2023-02-15T01:11:11;7.93;;;5.38;;
32026;SDS011;18543;50.848;4.596;2023-02-15T01:13:54;6.88;;;5.65;;
32026;SDS011;18543;50.848;4.596;2023-02-15T01:16:23;7.05;;;5.88;;
32026;SDS011;18543;50.848;4.596;2023-02-15T01:18:51;6.53;;;5.68;;
32026;SDS011;18543;50.848;4.596;2023-02-15T01:21:19;6.35;;;5.50;;
32026;SDS011;18543;50.848;4.596;2023-02-15T01:23:47;6.18;;;5.55;;
32026;SDS011;18543;50.848;4.596;2023-02-15T01:26:15;7.03;;;5.90;;
32026;SDS011;18543;50.848;4.596;2023-02-15T01:28:42;8.73;;;5.95;;
32026;SDS011;18543;50.848;4.596;2023-02-15T01:31:10;6.82;;;5.68;;
32026;SDS011;18543;50.848;4.596;2023-02-15T01:33:38;6.60;;;5.75;;
32026;SDS011;18543;50.848;4.596;2023-02-15T01:36:05;7.20;;;5.75;;
32026;SDS011;18543;50.848;4.596;2023-02-15T01:38:33;6.17;;;5.57;;
32026;SDS011;18543;50.848;4.596;2023-02-15T01:41:01;6.55;;;5.43;;
32026;SDS011;18543;50.848;4.596;2023-02-15T01:43:47;7.45;;;6.03;;
32026;SDS011;18543;50.848;4.596;2023-02-15T01:46:35;9.05;;;6.13;;
32026;SDS011;18543;50.848;4.596;2023-02-15T01:49:10;7.00;;;5.63;;
32026;SDS011;18543;50.848;4.596;2023-02-15T01:51:44;6.78;;;5.80;;
32026;SDS011;18543;50.848;4.596;2023-02-15T01:54:24;7.35;;;5.53;;
32026;SDS011;18543;50.848;4.596;2023-02-15T01:57:00;6.57;;;5.50;;
32026;SDS011;18543;50.848;4.596;2023-02-15T01:59:33;6.97;;;5.65;;
32026;SDS011;18543;50.848;4.596;2023-02-15T02:02:02;7.35;;;5.95;;
32026;SDS011;18543;50.848;4.596;2023-02-15T02:05:07;7.53;;;5.30;;
32026;SDS011;18543;50.848;4.596;2023-02-15T02:07:33;7.70;;;5.70;;
32026;SDS011;18543;50.848;4.596;2023-02-15T02:10:05;6.68;;;5.75;;
32026;SDS011;18543;50.848;4.596;2023-02-15T02:12:33;6.78;;;5.78;;
32026;SDS011;18543;50.848;4.596;2023-02-15T02:15:04;11.20;;;5.60;;
32026;SDS011;18543;50.848;4.596;2023-02-15T02:17:37;6.20;;;5.40;;
32026;SDS011;18543;50.848;4.596;2023-02-15T02:33:57;6.35;;;5.55;;
32026;SDS011;18543;50.848;4.596;2023-02-15T02:36:40;6.75;;;5.80;;
32026;SDS011;18543;50.848;4.596;2023-02-15T02:44:48;6.28;;;5.18;;
32026;SDS011;18543;50.848;4.596;2023-02-15T02:49:59;5.82;;;5.22;;
32026;SDS011;18543;50.848;4.596;2023-02-15T02:52:40;6.80;;;5.35;;
32026;SDS011;18543;50.848;4.596;2023-02-15T02:55:12;5.95;;;5.35;;
32026;SDS011;18543;50.848;4.596;2023-02-15T02:57:47;7.80;;;5.63;;
32026;SDS011;18543;50.848;4.596;2023-02-15T03:00:39;7.30;;;5.65;;
32026;SDS011;18543;50.848;4.596;2023-02-15T03:03:30;6.05;;;5.45;;
32026;SDS011;18543;50.848;4.596;2023-02-15T03:06:18;6.57;;;5.72;;
32026;SDS011;18543;50.848;4.596;2023-02-15T03:09:04;6.97;;;5.97;;
32026;SDS011;18543;50.848;4.596;2023-02-15T03:11:47;6.00;;;5.40;;
32026;SDS011;18543;50.848;4.596;2023-02-15T03:14:15;6.97;;;5.45;;
32026;SDS011;18543;50.848;4.596;2023-02-15T03:16:45;7.32;;;5.95;;
32026;SDS011;18543;50.848;4.596;2023-02-15T03:19:32;7.20;;;5.40;;
32026;SDS011;18543;50.848;4.596;2023-02-15T03:24:44;7.35;;;5.63;;
32026;SDS011;18543;50.848;4.596;2023-02-15T03:27:39;7.03;;;5.60;;
32026;SDS011;18543;50.848;4.596;2023-02-15T03:30:11;6.72;;;5.60;;
32026;SDS011;18543;50.848;4.596;2023-02-15T03:32:40;6.72;;;5.55;;
32026;SDS011;18543;50.848;4.596;2023-02-15T03:35:10;6.60;;;5.40;;
32026;SDS011;18543;50.848;4.596;2023-02-15T03:37:41;5.97;;;5.38;;
32026;SDS011;18543;50.848;4.596;2023-02-15T03:43:21;6.38;;;5.63;;
32026;SDS011;18543;50.848;4.596;2023-02-15T03:45:55;7.65;;;5.90;;
32026;SDS011;18543;50.848;4.596;2023-02-15T03:48:28;5.97;;;5.38;;
32026;SDS011;18543;50.848;4.596;2023-02-15T03:51:07;6.43;;;5.60;;
32026;SDS011;18543;50.848;4.596;2023-02-15T03:53:57;7.82;;;5.82;;
32026;SDS011;18543;50.848;4.596;2023-02-15T03:56:26;7.35;;;5.70;;
32026;SDS011;18543;50.848;4.596;2023-02-15T03:58:53;6.10;;;5.38;;
32026;SDS011;18543;50.848;4.596;2023-02-15T04:01:40;6.47;;;5.70;;
32026;SDS011;18543;50.848;4.596;2023-02-15T04:04:36;6.43;;;5.72;;
32026;SDS011;18543;50.848;4.596;2023-02-15T04:07:06;6.15;;;5.55;;
32026;SDS011;18543;50.848;4.596;2023-02-15T04:09:34;6.63;;;5.28;;
32026;SDS011;18543;50.848;4.596;2023-02-15T04:12:19;7.30;;;5.75;;
32026;SDS011;18543;50.848;4.596;2023-02-15T04:14:46;7.85;;;5.63;;
32026;SDS011;18543;50.848;4.596;2023-02-15T04:17:32;6.32;;;5.28;;
32026;SDS011;18543;50.848;4.596;2023-02-15T04:19:58;6.13;;;5.45;;
32026;SDS011;18543;50.848;4.596;2023-02-15T04:22:44;6.65;;;5.35;;
32026;SDS011;18543;50.848;4.596;2023-02-15T04:25:29;7.20;;;5.78;;
32026;SDS011;18543;50.848;4.596;2023-02-15T04:27:56;8.02;;;5.82;;
32026;SDS011;18543;50.848;4.596;2023-02-15T04:30:26;7.82;;;5.53;;
32026;SDS011;18543;50.848;4.596;2023-02-15T04:32:53;6.65;;;5.80;;
32026;SDS011;18543;50.848;4.596;2023-02-15T04:35:20;6.82;;;5.60;;
32026;SDS011;18543;50.848;4.596;2023-02-15T04:37:48;8.38;;;5.93;;
32026;SDS011;18543;50.848;4.596;2023-02-15T04:40:16;7.00;;;6.05;;
32026;SDS011;18543;50.848;4.596;2023-02-15T04:42:46;6.47;;;5.65;;
32026;SDS011;18543;50.848;4.596;2023-02-15T04:45:15;6.60;;;5.53;;
32026;SDS011;18543;50.848;4.596;2023-02-15T04:50:10;5.93;;;4.97;;
32026;SDS011;18543;50.848;4.596;2023-02-15T04:52:37;6.75;;;5.38;;
32026;SDS011;18543;50.848;4.596;2023-02-15T04:55:04;6.68;;;5.63;;
32026;SDS011;18543;50.848;4.596;2023-02-15T04:57:31;5.97;;;5.23;;
32026;SDS011;18543;50.848;4.596;2023-02-15T04:59:58;7.28;;;5.45;;
32026;SDS011;18543;50.848;4.596;2023-02-15T05:02:25;6.18;;;5.47;;
32026;SDS011;18543;50.848;4.596;2023-02-15T05:04:52;7.18;;;5.80;;
32026;SDS011;18543;50.848;4.596;2023-02-15T05:07:19;6.47;;;5.68;;
32026;SDS011;18543;50.848;4.596;2023-02-15T05:09:46;6.85;;;5.30;;
32026;SDS011;18543;50.848;4.596;2023-02-15T05:12:13;6.15;;;5.28;;
32026;SDS011;18543;50.848;4.596;2023-02-15T05:14:40;6.15;;;5.35;;
32026;SDS011;18543;50.848;4.596;2023-02-15T05:17:07;6.68;;;5.57;;
32026;SDS011;18543;50.848;4.596;2023-02-15T05:19:36;5.78;;;5.18;;
32026;SDS011;18543;50.848;4.596;2023-02-15T05:22:03;5.85;;;5.07;;
32026;SDS011;18543;50.848;4.596;2023-02-15T05:24:29;5.88;;;4.88;;
32026;SDS011;18543;50.848;4.596;2023-02-15T05:27:15;7.45;;;5.40;;
32026;SDS011;18543;50.848;4.596;2023-02-15T05:30:00;6.40;;;5.70;;
32026;SDS011;18543;50.848;4.596;2023-02-15T05:32:27;5.57;;;4.90;;
32026;SDS011;18543;50.848;4.596;2023-02-15T05:34:54;6.50;;;5.38;;
32026;SDS011;18543;50.848;4.596;2023-02-15T05:37:21;6.90;;;5.63;;
32026;SDS011;18543;50.848;4.596;2023-02-15T05:39:48;10.38;;;5.28;;
32026;SDS011;18543;50.848;4.596;2023-02-15T05:42:15;7.68;;;5.70;;
32026;SDS011;18543;50.848;4.596;2023-02-15T05:44:44;6.70;;;5.28;;
32026;SDS011;18543;50.848;4.596;2023-02-15T05:47:11;7.90;;;5.20;;
32026;SDS011;18543;50.848;4.596;2023-02-15T05:49:37;6.95;;;5.28;;
32026;SDS011;18543;50.848;4.596;2023-02-15T05:52:07;8.05;;;5.20;;
32026;SDS011;18543;50.848;4.596;2023-02-15T05:54:34;9.73;;;5.70;;
32026;SDS011;18543;50.848;4.596;2023-02-15T05:57:06;8.57;;;5.28;;
32026;SDS011;18543;50.848;4.596;2023-02-15T05:59:40;9.46;;;5.71;;
32026;SDS011;18543;50.848;4.596;2023-02-15T06:02:07;7.18;;;5.60;;
32026;SDS011;18543;50.848;4.596;2023-02-15T06:04:34;7.50;;;5.47;;
32026;SDS011;18543;50.848;4.596;2023-02-15T06:07:01;7.72;;;5.10;;
32026;SDS011;18543;50.848;4.596;2023-02-15T06:09:27;9.57;;;6.38;;
32026;SDS011;18543;50.848;4.596;2023-02-15T06:11:54;14.20;;;6.53;;
32026;SDS011;18543;50.848;4.596;2023-02-15T06:14:21;15.90;;;11.25;;
32026;SDS011;18543;50.848;4.596;2023-02-15T06:16:50;17.60;;;12.40;;
32026;SDS011;18543;50.848;4.596;2023-02-15T06:19:17;20.63;;;11.88;;
32026;SDS011;18543;50.848;4.596;2023-02-15T06:21:45;15.85;;;11.55;;
32026;SDS011;18543;50.848;4.596;2023-02-15T06:24:12;14.82;;;11.50;;
32026;SDS011;18543;50.848;4.596;2023-02-15T06:26:41;15.20;;;11.98;;
32026;SDS011;18543;50.848;4.596;2023-02-15T06:29:08;19.85;;;12.50;;
32026;SDS011;18543;50.848;4.596;2023-02-15T06:31:35;22.95;;;12.60;;
32026;SDS011;18543;50.848;4.596;2023-02-15T06:34:02;16.25;;;12.18;;
32026;SDS011;18543;50.848;4.596;2023-02-15T06:36:32;19.15;;;12.70;;
32026;SDS011;18543;50.848;4.596;2023-02-15T06:38:58;22.45;;;14.88;;
32026;SDS011;18543;50.848;4.596;2023-02-15T06:41:26;20.93;;;15.60;;
32026;SDS011;18543;50.848;4.596;2023-02-15T06:43:55;21.77;;;17.10;;
32026;SDS011;18543;50.848;4.596;2023-02-15T06:46:23;23.23;;;17.37;;
32026;SDS011;18543;50.848;4.596;2023-02-15T06:48:50;23.10;;;18.42;;
32026;SDS011;18543;50.848;4.596;2023-02-15T06:51:17;20.60;;;17.40;;
32026;SDS011;18543;50.848;4.596;2023-02-15T06:53:45;21.73;;;18.07;;
32026;SDS011;18543;50.848;4.596;2023-02-15T06:56:12;24.15;;;17.60;;
32026;SDS011;18543;50.848;4.596;2023-02-15T06:58:39;21.53;;;16.10;;
32026;SDS011;18543;50.848;4.596;2023-02-15T07:01:09;19.83;;;15.95;;
32026;SDS011;18543;50.848;4.596;2023-02-15T07:03:36;21.60;;;15.63;;
32026;SDS011;18543;50.848;4.596;2023-02-15T07:06:04;26.83;;;17.77;;
32026;SDS011;18543;50.848;4.596;2023-02-15T07:08:35;27.52;;;17.00;;
32026;SDS011;18543;50.848;4.596;2023-02-15T07:11:02;23.38;;;15.55;;
